createdAt,value
2019-02-16T00:01:31.583Z,5.45
2019-02-16T00:04:00.278Z,5.78
2019-02-16T00:06:28.992Z,5.67
2019-02-16T00:08:57.703Z,5.37
2019-02-16T00:11:26.395Z,5.25
2019-02-16T00:13:55.259Z,5.45
2019-02-16T00:16:23.990Z,5.47
2019-02-16T00:18:52.800Z,4.92
2019-02-16T00:21:21.534Z,5.17
2019-02-16T00:23:50.348Z,4.42
2019-02-16T00:26:19.110Z,5.20
2019-02-16T00:28:47.917Z,6.10
2019-02-16T00:31:16.644Z,6.33
2019-02-16T00:33:45.363Z,5.72
2019-02-16T00:36:14.190Z,4.67
2019-02-16T00:38:44.412Z,5.03
2019-02-16T00:41:13.154Z,4.70
2019-02-16T00:43:41.993Z,4.83
2019-02-16T00:46:10.733Z,4.20
2019-02-16T00:48:39.738Z,4.75
2019-02-16T00:51:13.537Z,4.70
2019-02-16T00:53:39.964Z,5.20
2019-02-16T00:56:08.853Z,4.80
2019-02-16T00:58:37.575Z,4.47
2019-02-16T01:01:06.283Z,4.83
2019-02-16T01:03:35.055Z,4.90
2019-02-16T01:06:03.866Z,5.15
2019-02-16T01:08:32.594Z,4.65
2019-02-16T01:11:01.335Z,4.55
2019-02-16T01:13:30.169Z,4.72
2019-02-16T01:15:58.995Z,4.67
2019-02-16T01:18:27.799Z,5.05
2019-02-16T01:20:56.623Z,4.90
2019-02-16T01:23:25.341Z,4.97
2019-02-16T01:25:54.306Z,4.60
2019-02-16T01:28:23.052Z,4.15
2019-02-16T01:30:51.846Z,5.03
2019-02-16T01:33:20.687Z,5.10
2019-02-16T01:35:49.557Z,4.78
2019-02-16T01:38:18.387Z,5.05
2019-02-16T01:40:47.506Z,5.67
2019-02-16T01:43:16.347Z,4.83
2019-02-16T01:45:45.305Z,5.05
2019-02-16T01:48:14.066Z,5.35
2019-02-16T01:50:42.877Z,5.47
2019-02-16T01:53:11.634Z,5.17
2019-02-16T01:55:40.662Z,5.62
2019-02-16T01:58:09.415Z,5.35
2019-02-16T02:00:38.164Z,5.80
2019-02-16T02:03:07.097Z,5.95
2019-02-16T02:05:35.886Z,5.30
2019-02-16T02:08:04.712Z,5.35
2019-02-16T02:10:33.629Z,4.95
2019-02-16T02:13:03.079Z,5.92
2019-02-16T02:15:31.868Z,5.70
2019-02-16T02:18:00.686Z,5.30
2019-02-16T02:20:29.587Z,5.37
2019-02-16T02:22:58.654Z,5.67
2019-02-16T02:25:27.420Z,5.40
2019-02-16T02:27:56.577Z,5.17
2019-02-16T02:30:25.413Z,5.28
2019-02-16T02:32:54.298Z,4.95
2019-02-16T02:35:23.153Z,5.53
2019-02-16T02:37:52.015Z,5.37
2019-02-16T02:40:21.095Z,5.40
2019-02-16T02:42:49.979Z,6.40
2019-02-16T02:45:18.905Z,5.95
2019-02-16T02:47:47.791Z,6.37
2019-02-16T02:50:16.605Z,4.83
2019-02-16T02:52:45.530Z,5.80
2019-02-16T02:55:14.252Z,5.25
2019-02-16T02:57:43.115Z,5.45
2019-02-16T03:00:12.006Z,5.60
2019-02-16T03:02:40.768Z,5.33
2019-02-16T03:05:09.852Z,5.67
2019-02-16T03:07:38.657Z,5.53
2019-02-16T03:10:07.544Z,5.12
2019-02-16T03:12:36.472Z,5.22
2019-02-16T03:15:05.631Z,5.92
2019-02-16T03:17:34.366Z,5.58
2019-02-16T03:20:03.258Z,5.90
2019-02-16T03:23:22.813Z,5.60
2019-02-16T03:25:58.252Z,5.40
2019-02-16T03:28:36.310Z,5.70
2019-02-16T03:31:45.613Z,5.28
2019-02-16T03:34:39.068Z,6.35
2019-02-16T03:37:38.545Z,5.75
2019-02-16T03:40:07.738Z,6.00
2019-02-16T03:42:36.635Z,6.00
2019-02-16T03:45:05.589Z,6.05
2019-02-16T03:47:34.503Z,5.53
2019-02-16T03:50:03.241Z,5.33
2019-02-16T03:52:32.047Z,5.42
2019-02-16T03:55:00.798Z,6.12
2019-02-16T03:57:29.683Z,5.92
2019-02-16T03:59:58.411Z,6.60
2019-02-16T04:02:27.252Z,6.15
2019-02-16T04:04:56.119Z,5.20
2019-02-16T04:07:24.986Z,6.40
2019-02-16T04:09:53.749Z,6.53
2019-02-16T04:12:22.533Z,5.45
2019-02-16T04:14:51.339Z,5.80
2019-02-16T04:17:20.026Z,6.12
2019-02-16T04:19:48.775Z,5.83
2019-02-16T04:22:24.741Z,6.20
2019-02-16T04:24:48.080Z,5.20
2019-02-16T04:27:16.778Z,6.65
2019-02-16T04:29:45.525Z,6.08
2019-02-16T04:32:14.241Z,6.47
2019-02-16T04:34:43.227Z,6.00
2019-02-16T04:37:11.942Z,6.05
2019-02-16T04:39:40.640Z,5.83
2019-02-16T04:42:09.415Z,6.33
2019-02-16T04:44:38.172Z,6.50
2019-02-16T04:47:06.955Z,5.60
2019-02-16T04:49:35.816Z,6.72
2019-02-16T04:52:04.517Z,6.85
2019-02-16T04:54:33.278Z,6.35
2019-02-16T04:57:02.036Z,6.67
2019-02-16T04:59:31.164Z,6.12
2019-02-16T05:01:59.906Z,6.28
2019-02-16T05:04:28.708Z,6.97
2019-02-16T05:06:57.483Z,7.10
2019-02-16T05:09:26.428Z,6.37
2019-02-16T05:11:55.150Z,6.45
2019-02-16T05:14:24.014Z,6.50
2019-02-16T05:16:52.789Z,6.08
2019-02-16T05:19:21.643Z,6.50
2019-02-16T05:21:50.405Z,6.78
2019-02-16T05:24:19.129Z,6.47
2019-02-16T05:26:48.008Z,6.78
2019-02-16T05:29:16.839Z,6.72
2019-02-16T05:31:45.595Z,6.70
2019-02-16T05:34:14.397Z,7.10
2019-02-16T05:36:43.409Z,7.10
2019-02-16T05:39:12.396Z,7.10
2019-02-16T05:41:41.278Z,7.22
2019-02-16T05:44:10.060Z,6.80
2019-02-16T05:46:39.037Z,6.87
2019-02-16T05:49:07.799Z,6.55
2019-02-16T05:51:36.538Z,6.37
2019-02-16T05:54:05.246Z,6.92
2019-02-16T05:56:34.006Z,6.80
2019-02-16T05:59:02.779Z,7.40
2019-02-16T06:01:31.552Z,6.33
2019-02-16T06:04:00.311Z,7.33
2019-02-16T06:06:29.162Z,6.92
2019-02-16T06:08:57.937Z,7.17
2019-02-16T06:11:26.732Z,6.10
2019-02-16T06:13:55.542Z,6.97
2019-02-16T06:16:24.371Z,6.87
2019-02-16T06:18:53.347Z,7.60
2019-02-16T06:21:22.049Z,6.35
2019-02-16T06:23:50.930Z,6.75
2019-02-16T06:26:19.722Z,6.60
2019-02-16T06:28:48.473Z,6.58
2019-02-16T06:31:17.159Z,6.78
2019-02-16T06:33:46.113Z,7.05
2019-02-16T06:36:39.927Z,7.10
2019-02-16T06:39:08.799Z,6.90
2019-02-16T06:41:37.579Z,7.90
2019-02-16T06:44:06.296Z,7.00
2019-02-16T06:46:35.113Z,7.12
2019-02-16T06:49:03.868Z,7.62
2019-02-16T06:51:32.754Z,7.25
2019-02-16T06:54:01.642Z,7.28
2019-02-16T06:56:53.972Z,8.20
2019-02-16T06:59:22.869Z,6.90
2019-02-16T07:01:51.839Z,7.45
2019-02-16T07:04:20.692Z,7.62
2019-02-16T07:06:49.686Z,7.70
2019-02-16T07:09:18.517Z,8.20
2019-02-16T07:11:47.366Z,7.67
2019-02-16T07:14:16.420Z,7.83
2019-02-16T07:17:10.245Z,7.92
2019-02-16T07:19:49.483Z,6.75
2019-02-16T07:22:18.278Z,7.75
2019-02-16T07:24:47.286Z,7.03
2019-02-16T07:27:16.182Z,7.75
2019-02-16T07:29:45.131Z,7.97
2019-02-16T07:32:14.216Z,7.50
2019-02-16T07:34:43.179Z,7.95
2019-02-16T07:37:11.950Z,8.33
2019-02-16T07:39:40.682Z,8.60
2019-02-16T07:42:09.493Z,7.97
2019-02-16T07:44:58.215Z,7.80
2019-02-16T07:47:38.441Z,7.42
2019-02-16T07:50:36.132Z,8.20
2019-02-16T07:53:11.823Z,8.48
2019-02-16T07:56:05.825Z,7.37
2019-02-16T07:58:39.682Z,7.85
2019-02-16T08:01:26.215Z,7.45
2019-02-16T08:04:12.835Z,8.37
2019-02-16T08:07:06.698Z,7.60
2019-02-16T08:09:54.584Z,9.08
2019-02-16T08:12:30.035Z,8.70
2019-02-16T08:15:07.053Z,9.20
2019-02-16T08:18:05.287Z,9.03
2019-02-16T08:20:42.527Z,9.48
2019-02-16T08:23:17.476Z,8.30
2019-02-16T08:26:14.224Z,8.83
2019-02-16T08:29:05.059Z,9.20
2019-02-16T08:31:55.746Z,9.65
2019-02-16T08:34:36.405Z,8.95
2019-02-16T08:37:12.155Z,8.00
2019-02-16T08:40:03.003Z,8.85
2019-02-16T08:42:44.607Z,7.78
2019-02-16T08:45:30.498Z,8.40
2019-02-16T08:48:24.317Z,8.43
2019-02-16T08:51:11.006Z,8.33
2019-02-16T08:53:50.062Z,8.03
2019-02-16T08:56:34.378Z,8.30
2019-02-16T08:59:20.841Z,7.67
2019-02-16T09:02:09.028Z,7.50
2019-02-16T09:05:05.739Z,7.53
2019-02-16T09:07:53.542Z,7.03
2019-02-16T09:10:31.396Z,7.08
2019-02-16T09:13:17.786Z,6.33
2019-02-16T09:16:20.888Z,6.65
2019-02-16T09:19:15.747Z,6.87
2019-02-16T09:22:08.875Z,6.92
2019-02-16T09:24:55.569Z,7.10
2019-02-16T09:27:37.780Z,6.67
2019-02-16T09:30:34.299Z,7.45
2019-02-16T09:33:25.519Z,7.10
2019-02-16T09:36:19.312Z,7.17
2019-02-16T09:38:59.865Z,6.72
2019-02-16T09:41:34.012Z,6.90
2019-02-16T09:44:27.890Z,7.75
2019-02-16T09:47:07.730Z,6.72
2019-02-16T09:49:44.346Z,7.08
2019-02-16T09:52:34.927Z,6.97
2019-02-16T09:55:19.266Z,7.30
2019-02-16T10:04:36.653Z,6.92
2019-02-16T10:07:19.250Z,6.95
2019-02-16T10:10:10.199Z,8.08
2019-02-16T10:12:53.230Z,7.65
2019-02-16T10:19:11.023Z,7.35
2019-02-16T10:21:57.405Z,8.33
2019-02-16T10:25:00.553Z,7.87
2019-02-16T10:27:36.584Z,8.30
2019-02-16T10:30:23.088Z,8.00
2019-02-16T10:33:08.295Z,8.83
2019-02-16T10:35:56.202Z,8.43
2019-02-16T10:38:42.629Z,8.93
2019-02-16T10:41:28.884Z,9.65
2019-02-16T10:44:16.737Z,9.78
2019-02-16T10:47:04.872Z,9.65
2019-02-16T10:49:52.914Z,10.82
2019-02-16T10:52:43.493Z,12.15
2019-02-16T10:55:41.663Z,11.68
2019-02-16T10:58:16.244Z,11.48
2019-02-16T11:01:10.146Z,11.28
2019-02-16T11:04:02.643Z,11.68
2019-02-16T11:06:46.064Z,12.63
2019-02-16T11:09:45.769Z,11.80
2019-02-16T11:12:36.225Z,13.20
2019-02-16T11:15:40.282Z,12.82
2019-02-16T11:18:26.814Z,12.20
2019-02-16T11:21:13.482Z,13.62
2019-02-16T11:23:55.034Z,13.80
2019-02-16T11:26:41.452Z,13.62
2019-02-16T11:29:28.112Z,13.28
2019-02-16T11:32:19.082Z,15.18
2019-02-16T11:34:53.613Z,13.03
2019-02-16T11:37:41.430Z,13.18
2019-02-16T11:40:19.382Z,13.35
2019-02-16T11:42:57.439Z,14.13
2019-02-16T11:45:37.276Z,13.90
2019-02-16T11:48:30.642Z,13.43
2019-02-16T11:51:23.828Z,14.60
2019-02-16T11:54:17.529Z,13.10
2019-02-16T11:57:04.063Z,13.38
2019-02-16T11:59:52.819Z,13.18
2019-02-16T12:02:39.459Z,13.18
2019-02-16T12:05:14.359Z,12.75
2019-02-16T12:08:02.170Z,13.03
2019-02-16T12:10:40.989Z,12.80
2019-02-16T12:13:27.240Z,15.65
2019-02-16T12:16:12.680Z,14.30
2019-02-16T12:19:00.522Z,14.93
2019-02-16T12:21:53.897Z,15.53
2019-02-16T12:25:05.103Z,17.80
2019-02-16T12:27:35.344Z,18.02
2019-02-16T12:30:22.103Z,17.17
2019-02-16T12:33:12.584Z,17.52
2019-02-16T12:35:59.025Z,16.57
2019-02-16T12:38:45.580Z,16.85
2019-02-16T12:41:36.542Z,15.80
2019-02-16T12:44:30.331Z,15.38
2019-02-16T12:47:27.072Z,16.30
2019-02-16T12:50:16.962Z,16.27
2019-02-16T12:53:08.004Z,16.50
2019-02-16T12:55:54.495Z,15.35
2019-02-16T12:58:29.909Z,14.78
2019-02-16T13:01:05.651Z,15.43
2019-02-16T13:04:05.430Z,14.50
2019-02-16T13:06:53.373Z,13.32
2019-02-16T13:09:40.372Z,13.75
2019-02-16T13:12:17.178Z,14.23
2019-02-16T13:15:02.610Z,12.98
2019-02-16T13:17:37.403Z,13.78
2019-02-16T13:20:17.500Z,13.78
2019-02-16T13:23:06.931Z,13.32
2019-02-16T13:25:43.836Z,12.63
2019-02-16T13:28:24.355Z,13.18
2019-02-16T13:31:08.210Z,12.50
2019-02-16T13:33:48.084Z,13.72
2019-02-16T13:36:42.158Z,13.38
2019-02-16T13:39:28.727Z,12.65
2019-02-16T13:42:02.352Z,12.43
2019-02-16T13:44:53.287Z,12.20
2019-02-16T13:47:27.803Z,11.15
2019-02-16T13:50:20.326Z,11.80
2019-02-16T13:53:14.390Z,11.38
2019-02-16T13:56:04.738Z,11.90
2019-02-16T13:58:40.135Z,12.90
2019-02-16T14:01:17.605Z,11.93
2019-02-16T14:04:00.987Z,12.03
2019-02-16T14:06:39.310Z,11.03
2019-02-16T14:09:19.991Z,12.00
2019-02-16T14:12:11.618Z,12.00
2019-02-16T14:14:46.623Z,12.03
2019-02-16T14:17:29.921Z,11.48
2019-02-16T14:19:58.769Z,11.38
2019-02-16T14:22:27.505Z,12.00
2019-02-16T14:24:58.661Z,11.15
2019-02-16T14:27:27.482Z,10.98
2019-02-16T14:29:56.265Z,10.90
2019-02-16T14:32:25.027Z,10.65
2019-02-16T14:34:54.218Z,11.33
2019-02-16T14:37:38.143Z,10.08
2019-02-16T14:40:07.192Z,11.73
2019-02-16T14:42:35.905Z,11.73
2019-02-16T14:45:05.021Z,10.13
2019-02-16T14:47:33.777Z,11.68
2019-02-16T14:50:02.612Z,10.55
2019-02-16T14:52:31.309Z,10.30
2019-02-16T14:55:00.309Z,9.90
2019-02-16T14:57:29.085Z,9.65
2019-02-16T14:59:57.798Z,10.35
2019-02-16T15:02:26.494Z,11.57
2019-02-16T15:04:55.332Z,10.05
2019-02-16T15:07:24.077Z,9.48
2019-02-16T15:09:53.046Z,10.75
2019-02-16T15:12:21.809Z,11.10
2019-02-16T15:14:50.589Z,10.13
2019-02-16T15:17:19.616Z,11.78
2019-02-16T15:19:54.213Z,10.75
2019-02-16T15:22:22.959Z,10.85
2019-02-16T15:24:51.679Z,10.72
2019-02-16T15:27:21.675Z,12.05
2019-02-16T15:29:50.437Z,10.48
2019-02-16T15:32:19.223Z,11.63
2019-02-16T15:34:48.023Z,12.20
2019-02-16T15:37:16.845Z,11.18
2019-02-16T15:39:45.750Z,11.70
2019-02-16T15:42:14.556Z,10.95
2019-02-16T15:44:43.329Z,11.20
2019-02-16T15:47:12.116Z,10.82
2019-02-16T15:49:41.197Z,11.83
2019-02-16T15:52:10.027Z,11.75
2019-02-16T15:54:38.941Z,13.03
2019-02-16T15:57:07.697Z,12.50
2019-02-16T15:59:36.531Z,12.10
2019-02-16T16:02:05.501Z,11.15
2019-02-16T16:04:34.411Z,13.98
2019-02-16T16:07:04.925Z,12.13
2019-02-16T16:09:43.538Z,12.60
2019-02-16T16:12:49.561Z,12.15
2019-02-16T16:15:28.838Z,12.45
2019-02-16T16:18:16.697Z,13.03
2019-02-16T16:21:19.725Z,12.65
2019-02-16T16:24:05.844Z,12.80
2019-02-16T16:27:05.929Z,13.20
2019-02-16T16:30:11.534Z,13.15
2019-02-16T16:33:02.621Z,14.25
2019-02-16T16:35:50.597Z,13.50
2019-02-16T16:38:47.379Z,14.45
2019-02-16T16:41:35.304Z,13.40
2019-02-16T16:44:26.136Z,13.45
2019-02-16T16:47:12.631Z,12.88
2019-02-16T16:50:18.530Z,11.88
2019-02-16T16:52:57.380Z,12.93
2019-02-16T16:55:44.482Z,13.53
2019-02-16T16:58:29.534Z,14.33
2019-02-16T17:01:10.440Z,13.48
2019-02-16T17:05:00.369Z,14.10
2019-02-16T17:07:59.710Z,14.70
2019-02-16T17:11:05.661Z,13.30
2019-02-16T17:13:46.045Z,13.58
2019-02-16T17:16:26.157Z,14.60
2019-02-16T17:19:01.760Z,14.10
2019-02-16T17:21:55.446Z,15.05
2019-02-16T17:24:58.312Z,16.37
2019-02-16T17:27:47.166Z,16.02
2019-02-16T17:30:53.218Z,16.10
2019-02-16T17:33:38.712Z,14.68
2019-02-16T17:36:28.744Z,16.10
2019-02-16T17:39:07.347Z,16.73
2019-02-16T17:42:01.293Z,15.35
2019-02-16T17:44:38.113Z,16.93
2019-02-16T17:47:32.045Z,17.98
2019-02-16T17:50:05.644Z,17.85
2019-02-16T17:52:54.232Z,17.42
2019-02-16T17:55:54.256Z,15.32
2019-02-16T17:58:30.830Z,16.77
2019-02-16T18:01:21.365Z,16.82
2019-02-16T18:04:12.365Z,17.35
2019-02-16T18:07:01.456Z,17.95
2019-02-16T18:09:40.794Z,15.53
2019-02-16T18:12:26.958Z,14.95
2019-02-16T18:15:14.874Z,17.25
2019-02-16T18:17:56.770Z,16.60
2019-02-16T18:20:44.632Z,19.25
2019-02-16T18:23:31.029Z,18.02
2019-02-16T18:26:34.041Z,15.93
2019-02-16T18:29:37.078Z,16.17
2019-02-16T18:32:31.333Z,16.87
2019-02-16T18:35:35.829Z,21.52
2019-02-16T18:38:14.051Z,20.65
2019-02-16T18:41:00.783Z,21.55
2019-02-16T18:43:45.571Z,19.37
2019-02-16T18:46:29.529Z,19.15
2019-02-16T18:49:22.701Z,21.52
2019-02-16T18:52:05.868Z,26.23
2019-02-16T18:54:45.188Z,21.02
2019-02-16T18:57:39.545Z,19.98
2019-02-16T19:00:19.235Z,19.92
2019-02-16T19:02:55.911Z,17.42
2019-02-16T19:05:43.852Z,19.30
2019-02-16T19:08:21.915Z,20.00
2019-02-16T19:11:08.520Z,21.10
2019-02-16T19:13:54.754Z,20.72
2019-02-16T19:16:41.389Z,20.30
2019-02-16T19:19:34.211Z,20.32
2019-02-16T19:22:19.011Z,19.48
2019-02-16T19:25:07.021Z,23.02
2019-02-16T19:27:57.954Z,20.30
2019-02-16T19:30:44.546Z,26.20
2019-02-16T19:33:28.763Z,21.97
2019-02-16T19:36:06.319Z,20.72
2019-02-16T19:38:49.061Z,19.92
2019-02-16T19:41:49.310Z,19.70
2019-02-16T19:44:34.184Z,20.88
2019-02-16T19:47:18.673Z,19.65
2019-02-16T19:50:05.244Z,20.65
2019-02-16T19:52:46.761Z,19.50
2019-02-16T19:55:36.880Z,19.67
2019-02-16T19:58:23.211Z,20.75
2019-02-16T20:01:11.108Z,22.37
2019-02-16T20:04:05.285Z,21.25
2019-02-16T20:06:45.612Z,21.65
2019-02-16T20:09:17.175Z,22.67
2019-02-16T20:12:14.171Z,23.07
2019-02-16T20:15:16.915Z,25.45
2019-02-16T20:17:59.462Z,24.63
2019-02-16T20:20:53.448Z,24.10
2019-02-16T20:23:48.577Z,24.25
2019-02-16T20:26:29.958Z,24.15
2019-02-16T20:29:23.774Z,20.92
2019-02-16T20:32:10.461Z,23.38
2019-02-16T20:34:52.591Z,23.83
2019-02-16T20:37:43.462Z,24.32
2019-02-16T20:40:23.650Z,23.32
2019-02-16T20:43:14.279Z,23.42
2019-02-16T20:45:58.567Z,23.25
2019-02-16T20:48:55.440Z,23.92
2019-02-16T20:51:42.272Z,23.35
2019-02-16T20:54:33.069Z,23.40
2019-02-16T20:57:19.333Z,21.12
2019-02-16T21:00:22.433Z,23.25
2019-02-16T21:03:06.192Z,23.90
2019-02-16T21:05:57.065Z,23.32
2019-02-16T21:08:54.566Z,22.67
2019-02-16T21:11:39.980Z,22.65
2019-02-16T21:14:39.815Z,23.02
2019-02-16T21:17:26.092Z,24.20
2019-02-16T21:20:01.338Z,22.52
2019-02-16T21:22:51.966Z,23.32
2019-02-16T21:25:51.656Z,22.62
2019-02-16T21:28:29.987Z,24.12
2019-02-16T21:31:09.588Z,23.67
2019-02-16T21:34:15.276Z,24.45
2019-02-16T21:36:55.078Z,22.42
2019-02-16T21:39:47.348Z,25.32
2019-02-16T21:42:33.384Z,22.25
2019-02-16T21:45:19.958Z,24.30
2019-02-16T21:48:06.372Z,24.52
2019-02-16T21:51:00.313Z,22.73
2019-02-16T21:54:06.428Z,24.52
2019-02-16T21:56:52.360Z,24.63
2019-02-16T21:59:33.567Z,25.82
2019-02-16T22:02:10.682Z,25.30
2019-02-16T22:04:55.244Z,25.15
2019-02-16T22:07:39.236Z,24.15
2019-02-16T22:10:16.886Z,24.80
2019-02-16T22:13:07.546Z,24.92
2019-02-16T22:15:36.288Z,24.37
2019-02-16T22:18:05.233Z,24.37
2019-02-16T22:20:34.065Z,25.50
2019-02-16T22:23:05.060Z,24.20
2019-02-16T22:25:33.834Z,26.68
2019-02-16T22:28:02.673Z,25.55
2019-02-16T22:30:31.409Z,24.95
2019-02-16T22:33:00.272Z,27.20
2019-02-16T22:35:29.019Z,25.80
2019-02-16T22:37:57.857Z,26.12
2019-02-16T22:40:26.664Z,27.80
2019-02-16T22:42:55.467Z,27.42
2019-02-16T22:45:24.311Z,26.87
2019-02-16T22:47:53.024Z,27.82
2019-02-16T22:50:21.783Z,27.65
2019-02-16T22:52:50.514Z,28.27
2019-02-16T22:55:19.260Z,27.35
2019-02-16T22:57:48.023Z,26.60
2019-02-16T23:00:27.472Z,27.30
2019-02-16T23:02:56.459Z,24.52
2019-02-16T23:05:25.255Z,26.70
2019-02-16T23:07:53.977Z,25.30
2019-02-16T23:10:22.786Z,24.40
2019-02-16T23:12:51.575Z,26.17
2019-02-16T23:15:20.539Z,25.00
2019-02-16T23:17:49.265Z,25.92
2019-02-16T23:20:18.004Z,26.23
2019-02-16T23:22:46.726Z,25.80
2019-02-16T23:25:15.514Z,23.92
2019-02-16T23:27:44.891Z,25.85
2019-02-16T23:30:13.832Z,25.27
2019-02-16T23:32:42.727Z,26.75
2019-02-16T23:35:11.533Z,25.40
2019-02-16T23:37:40.268Z,25.88
2019-02-16T23:40:09.102Z,26.65
2019-02-16T23:42:38.672Z,25.35
2019-02-16T23:45:07.664Z,27.77
2019-02-16T23:47:36.587Z,27.55
2019-02-16T23:50:05.729Z,29.00
2019-02-16T23:52:34.776Z,27.48
2019-02-16T23:55:05.309Z,26.07
2019-02-16T23:57:34.038Z,26.57
